createdAt,value
2019-02-15T00:00:46.758Z,100556.89
2019-02-15T00:03:12.923Z,100559.99
2019-02-15T00:05:39.182Z,100567.36
2019-02-15T00:08:05.482Z,100559.01
2019-02-15T00:10:31.641Z,100559.27
2019-02-15T00:12:57.798Z,100559.86
2019-02-15T00:15:23.987Z,100562.39
2019-02-15T00:17:52.065Z,100563.77
2019-02-15T00:20:20.281Z,100572.50
2019-02-15T00:22:46.579Z,100565.05
2019-02-15T00:25:12.845Z,100561.88
2019-02-15T00:27:39.096Z,100565.35
2019-02-15T00:30:08.795Z,100557.69
2019-02-15T00:32:35.069Z,100560.96
2019-02-15T00:35:01.249Z,100561.44
2019-02-15T00:37:27.434Z,100562.08
2019-02-15T00:39:53.700Z,100572.14
2019-02-15T00:42:19.953Z,100562.95
2019-02-15T00:44:46.140Z,100560.00
2019-02-15T00:47:20.010Z,100563.23
2019-02-15T00:49:48.408Z,100566.47
2019-02-15T00:52:19.270Z,100564.71
2019-02-15T00:54:55.964Z,100565.26
2019-02-15T00:57:24.027Z,100569.41
2019-02-15T01:00:00.876Z,100573.58
2019-02-15T01:02:35.781Z,100570.45
2019-02-15T01:05:12.851Z,100570.74
2019-02-15T01:07:40.918Z,100574.58
2019-02-15T01:10:08.981Z,100570.64
2019-02-15T01:12:37.080Z,100567.73
2019-02-15T01:15:03.746Z,100564.53
2019-02-15T01:17:29.998Z,100569.66
2019-02-15T01:19:56.302Z,100570.25
2019-02-15T01:22:22.567Z,100566.75
2019-02-15T01:24:48.820Z,100572.37
2019-02-15T01:27:16.923Z,100572.97
2019-02-15T01:29:59.820Z,100572.98
2019-02-15T01:32:33.745Z,100568.21
2019-02-15T01:35:13.842Z,100571.20
2019-02-15T01:37:44.723Z,100570.37
2019-02-15T01:40:15.324Z,100571.92
2019-02-15T01:43:01.477Z,100568.12
2019-02-15T01:45:32.515Z,100570.27
2019-02-15T01:47:58.670Z,100567.47
2019-02-15T01:50:24.876Z,100562.25
2019-02-15T01:52:51.031Z,100555.33
2019-02-15T01:55:17.194Z,100559.53
2019-02-15T01:57:43.398Z,100561.05
2019-02-15T02:00:12.358Z,100565.55
2019-02-15T02:02:38.512Z,100569.16
2019-02-15T02:05:05.015Z,100570.72
2019-02-15T02:07:31.166Z,100567.20
2019-02-15T02:09:57.536Z,100576.63
2019-02-15T02:12:23.728Z,100573.18
2019-02-15T02:14:49.903Z,100572.44
2019-02-15T02:17:16.159Z,100566.91
2019-02-15T02:19:42.365Z,100568.80
2019-02-15T02:22:08.533Z,100576.41
2019-02-15T02:24:35.023Z,100572.63
2019-02-15T02:27:01.214Z,100574.36
2019-02-15T02:29:27.383Z,100576.17
2019-02-15T02:31:53.538Z,100575.50
2019-02-15T02:34:19.739Z,100574.33
2019-02-15T02:36:52.063Z,100563.86
2019-02-15T02:39:18.224Z,100566.20
2019-02-15T02:41:44.533Z,100565.66
2019-02-15T02:44:10.691Z,100563.65
2019-02-15T02:46:36.858Z,100569.92
2019-02-15T02:49:03.084Z,100570.91
2019-02-15T02:51:29.306Z,100568.73
2019-02-15T02:53:55.519Z,100569.16
2019-02-15T02:56:21.712Z,100578.41
2019-02-15T02:58:47.973Z,100576.98
2019-02-15T03:01:14.122Z,100571.22
2019-02-15T03:03:40.311Z,100575.62
2019-02-15T03:06:06.478Z,100578.50
2019-02-15T03:08:32.650Z,100585.75
2019-02-15T03:10:58.842Z,100587.13
2019-02-15T03:13:24.996Z,100576.92
2019-02-15T03:15:51.160Z,100573.22
2019-02-15T03:18:17.464Z,100577.18
2019-02-15T03:20:43.721Z,100577.14
2019-02-15T03:23:09.976Z,100583.09
2019-02-15T03:25:36.178Z,100574.98
2019-02-15T03:28:02.340Z,100586.91
2019-02-15T03:30:28.505Z,100586.36
2019-02-15T03:32:54.799Z,100587.96
2019-02-15T03:35:21.051Z,100586.04
2019-02-15T03:37:54.918Z,100586.10
2019-02-15T03:40:25.803Z,100591.63
2019-02-15T03:42:51.968Z,100587.71
2019-02-15T03:45:18.229Z,100594.87
2019-02-15T03:47:44.513Z,100595.06
2019-02-15T03:50:10.804Z,100600.09
2019-02-15T03:52:36.948Z,100599.92
2019-02-15T03:55:05.143Z,100597.98
2019-02-15T03:57:31.298Z,100600.56
2019-02-15T03:59:57.451Z,100596.53
2019-02-15T04:02:23.762Z,100597.44
2019-02-15T04:04:50.431Z,100596.64
2019-02-15T04:07:16.704Z,100593.58
2019-02-15T04:09:42.996Z,100591.92
2019-02-15T04:12:09.192Z,100581.45
2019-02-15T04:14:35.331Z,100586.70
2019-02-15T04:17:01.622Z,100584.45
2019-02-15T04:19:27.872Z,100591.36
2019-02-15T04:21:54.029Z,100595.24
2019-02-15T04:24:20.343Z,100597.98
2019-02-15T04:26:46.550Z,100595.30
2019-02-15T04:29:12.814Z,100592.02
2019-02-15T04:31:39.960Z,100601.48
2019-02-15T04:34:08.061Z,100602.30
2019-02-15T04:36:34.324Z,100602.20
2019-02-15T04:39:00.605Z,100599.28
2019-02-15T04:41:26.891Z,100595.18
2019-02-15T04:43:53.018Z,100602.34
2019-02-15T04:46:19.219Z,100604.95
2019-02-15T04:48:45.387Z,100594.72
2019-02-15T04:51:11.644Z,100604.92
2019-02-15T04:53:37.943Z,100611.02
2019-02-15T04:56:04.230Z,100617.45
2019-02-15T04:58:30.487Z,100615.89
2019-02-15T05:00:56.675Z,100614.62
2019-02-15T05:03:22.837Z,100618.59
2019-02-15T05:05:49.199Z,100629.69
2019-02-15T05:08:15.509Z,100630.72
2019-02-15T05:10:41.781Z,100638.69
2019-02-15T05:13:08.057Z,100633.60
2019-02-15T05:15:34.248Z,100631.62
2019-02-15T05:18:00.420Z,100637.70
2019-02-15T05:20:26.693Z,100643.49
2019-02-15T05:22:52.992Z,100639.36
2019-02-15T05:25:19.161Z,100643.83
2019-02-15T05:27:45.378Z,100640.95
2019-02-15T05:30:11.671Z,100648.96
2019-02-15T05:32:37.831Z,100657.64
2019-02-15T05:35:04.616Z,100661.92
2019-02-15T05:37:30.901Z,100665.36
2019-02-15T05:39:57.161Z,100664.56
2019-02-15T05:42:23.417Z,100670.66
2019-02-15T05:44:49.614Z,100674.48
2019-02-15T05:47:15.789Z,100681.66
2019-02-15T05:49:41.952Z,100682.39
2019-02-15T05:52:08.131Z,100682.48
2019-02-15T05:54:34.288Z,100685.56
2019-02-15T05:57:00.445Z,100691.19
2019-02-15T05:59:26.645Z,100691.89
2019-02-15T06:01:52.801Z,100702.13
2019-02-15T06:04:19.093Z,100695.39
2019-02-15T06:06:45.286Z,100700.08
2019-02-15T06:09:11.450Z,100701.73
2019-02-15T06:11:37.595Z,100709.98
2019-02-15T06:14:03.790Z,100717.41
2019-02-15T06:16:29.955Z,100719.18
2019-02-15T06:18:56.158Z,100713.60
2019-02-15T06:21:22.363Z,100716.22
2019-02-15T06:23:48.624Z,100717.08
2019-02-15T06:26:14.797Z,100725.95
2019-02-15T06:28:41.032Z,100727.18
2019-02-15T06:31:07.290Z,100725.56
2019-02-15T06:33:33.447Z,100724.44
2019-02-15T06:35:59.682Z,100728.22
2019-02-15T06:38:34.603Z,100729.97
2019-02-15T06:40:53.887Z,100728.52
2019-02-15T06:43:20.101Z,100723.44
2019-02-15T06:45:46.252Z,100728.61
2019-02-15T06:48:12.405Z,100735.48
2019-02-15T06:50:38.606Z,100738.47
2019-02-15T06:53:04.779Z,100737.30
2019-02-15T06:55:30.926Z,100743.66
2019-02-15T06:57:57.115Z,100747.83
2019-02-15T07:00:31.015Z,100760.69
2019-02-15T07:03:11.215Z,100756.27
2019-02-15T07:05:37.692Z,100754.94
2019-02-15T07:08:03.848Z,100759.91
2019-02-15T07:10:30.047Z,100758.23
2019-02-15T07:12:56.209Z,100760.28
2019-02-15T07:15:22.366Z,100767.17
2019-02-15T07:17:48.659Z,100769.77
2019-02-15T07:20:14.818Z,100770.48
2019-02-15T07:22:40.983Z,100780.70
2019-02-15T07:25:09.371Z,100778.46
2019-02-15T07:27:35.545Z,100781.05
2019-02-15T07:30:03.030Z,100778.43
2019-02-15T07:32:29.324Z,100779.83
2019-02-15T07:34:55.494Z,100788.49
2019-02-15T07:37:21.750Z,100780.27
2019-02-15T07:39:48.074Z,100785.03
2019-02-15T07:42:14.216Z,100782.39
2019-02-15T07:44:40.386Z,100775.26
2019-02-15T07:47:06.579Z,100780.88
2019-02-15T07:49:32.863Z,100782.80
2019-02-15T07:51:59.126Z,100790.90
2019-02-15T07:54:25.337Z,100798.03
2019-02-15T07:56:51.473Z,100794.19
2019-02-15T07:59:17.641Z,100807.27
2019-02-15T08:01:43.843Z,100800.59
2019-02-15T08:04:09.999Z,100807.98
2019-02-15T08:06:36.263Z,100806.44
2019-02-15T08:09:06.063Z,100805.69
2019-02-15T08:11:32.219Z,100806.84
2019-02-15T08:13:58.472Z,100799.69
2019-02-15T08:16:24.663Z,100808.86
2019-02-15T08:18:50.826Z,100801.79
2019-02-15T08:21:16.984Z,100812.38
2019-02-15T08:23:43.183Z,100806.87
2019-02-15T08:26:09.444Z,100812.13
2019-02-15T08:28:35.709Z,100808.77
2019-02-15T08:31:01.948Z,100815.92
2019-02-15T08:33:28.207Z,100812.14
2019-02-15T08:35:54.366Z,100816.63
2019-02-15T08:38:20.552Z,100819.48
2019-02-15T08:40:46.723Z,100825.77
2019-02-15T08:43:12.976Z,100826.19
2019-02-15T08:45:39.164Z,100823.86
2019-02-15T08:48:05.319Z,100832.81
2019-02-15T08:50:31.670Z,100835.83
2019-02-15T08:52:57.961Z,100833.96
2019-02-15T08:55:24.228Z,100836.83
2019-02-15T08:57:50.503Z,100837.61
2019-02-15T09:00:16.689Z,100832.16
2019-02-15T09:02:42.948Z,100838.28
2019-02-15T09:05:11.924Z,100828.22
2019-02-15T09:07:38.215Z,100836.47
2019-02-15T09:10:07.377Z,100832.95
2019-02-15T09:12:33.541Z,100843.71
2019-02-15T09:14:59.906Z,100839.89
2019-02-15T09:17:27.361Z,100846.82
2019-02-15T09:19:53.761Z,100844.08
2019-02-15T09:22:20.060Z,100851.80
2019-02-15T09:24:46.218Z,100854.30
2019-02-15T09:27:26.402Z,100860.92
2019-02-15T09:29:52.665Z,100858.85
2019-02-15T09:32:19.937Z,100863.69
2019-02-15T09:34:46.128Z,100866.88
2019-02-15T09:37:12.304Z,100866.16
2019-02-15T09:39:39.612Z,100867.61
2019-02-15T09:42:05.857Z,100873.92
2019-02-15T09:44:32.114Z,100877.80
2019-02-15T09:46:58.374Z,100872.23
2019-02-15T09:49:24.671Z,100873.88
2019-02-15T09:51:50.937Z,100873.30
2019-02-15T09:54:17.083Z,100874.98
2019-02-15T09:56:43.286Z,100865.30
2019-02-15T09:59:09.543Z,100870.45
2019-02-15T10:01:35.809Z,100877.00
2019-02-15T10:04:02.038Z,100879.66
2019-02-15T10:06:28.586Z,100874.69
2019-02-15T10:08:54.786Z,100881.11
2019-02-15T10:11:21.108Z,100881.18
2019-02-15T10:13:47.369Z,100886.06
2019-02-15T10:16:13.671Z,100882.25
2019-02-15T10:18:39.823Z,100886.36
2019-02-15T10:21:06.088Z,100882.84
2019-02-15T10:23:32.364Z,100885.35
2019-02-15T10:25:58.662Z,100886.44
2019-02-15T10:28:24.833Z,100885.78
2019-02-15T10:30:50.991Z,100885.98
2019-02-15T10:33:17.357Z,100891.36
2019-02-15T10:35:43.517Z,100887.34
2019-02-15T10:38:09.825Z,100890.75
2019-02-15T10:40:36.182Z,100895.51
2019-02-15T10:43:02.438Z,100894.73
2019-02-15T10:45:28.705Z,100900.31
2019-02-15T10:47:55.033Z,100894.67
2019-02-15T10:50:21.298Z,100898.95
2019-02-15T10:52:47.456Z,100893.51
2019-02-15T10:55:13.686Z,100895.19
2019-02-15T10:57:39.853Z,100899.53
2019-02-15T11:00:14.480Z,100891.14
2019-02-15T11:02:40.675Z,100887.37
2019-02-15T11:05:07.045Z,100893.56
2019-02-15T11:07:33.312Z,100885.86
2019-02-15T11:09:59.501Z,100895.39
2019-02-15T11:12:26.784Z,100891.48
2019-02-15T11:14:53.042Z,100895.84
2019-02-15T11:17:19.340Z,100899.99
2019-02-15T11:19:45.550Z,100890.31
2019-02-15T11:22:11.815Z,100896.86
2019-02-15T11:24:40.351Z,100895.42
2019-02-15T11:27:06.551Z,100894.61
2019-02-15T11:29:32.705Z,100902.29
2019-02-15T11:31:58.895Z,100901.20
2019-02-15T11:34:25.201Z,100898.91
2019-02-15T11:36:51.483Z,100905.22
2019-02-15T11:39:17.661Z,100903.98
2019-02-15T11:41:43.946Z,100902.89
2019-02-15T11:44:10.134Z,100897.55
2019-02-15T11:46:36.451Z,100897.60
2019-02-15T11:49:02.918Z,100891.49
2019-02-15T11:51:29.190Z,100896.16
2019-02-15T11:53:55.432Z,100892.98
2019-02-15T11:56:21.690Z,100884.32
2019-02-15T11:58:48.051Z,100882.66
2019-02-15T12:01:14.252Z,100890.51
2019-02-15T12:03:40.512Z,100886.34
2019-02-15T12:06:06.681Z,100879.23
2019-02-15T12:08:32.998Z,100877.63
2019-02-15T12:10:59.269Z,100875.77
2019-02-15T12:13:25.424Z,100869.05
2019-02-15T12:15:51.628Z,100871.90
2019-02-15T12:18:17.887Z,100875.28
2019-02-15T12:20:44.054Z,100873.80
2019-02-15T12:23:10.263Z,100862.48
2019-02-15T12:25:36.412Z,100880.87
2019-02-15T12:28:02.680Z,100872.72
2019-02-15T12:30:28.873Z,100873.23
2019-02-15T12:32:55.034Z,100865.73
2019-02-15T12:35:21.259Z,100863.91
2019-02-15T12:37:47.446Z,100869.55
2019-02-15T12:40:13.626Z,100863.27
2019-02-15T12:42:39.886Z,100862.02
2019-02-15T12:45:09.587Z,100859.66
2019-02-15T12:47:35.758Z,100855.14
2019-02-15T12:50:02.774Z,100856.88
2019-02-15T12:52:29.078Z,100849.75
2019-02-15T12:54:55.232Z,100863.98
2019-02-15T12:57:21.406Z,100852.61
2019-02-15T12:59:47.601Z,100860.72
2019-02-15T13:02:13.868Z,100861.30
2019-02-15T13:04:40.026Z,100863.63
2019-02-15T13:07:08.359Z,100861.19
2019-02-15T13:09:34.888Z,100861.02
2019-02-15T13:12:01.042Z,100862.31
2019-02-15T13:14:27.235Z,100851.05
2019-02-15T13:16:53.526Z,100856.27
2019-02-15T13:19:19.793Z,100850.06
2019-02-15T13:21:45.997Z,100855.91
2019-02-15T13:24:12.164Z,100858.03
2019-02-15T13:26:38.430Z,100846.94
2019-02-15T13:29:04.718Z,100851.61
2019-02-15T13:31:30.876Z,100843.19
2019-02-15T13:33:57.244Z,100841.39
2019-02-15T13:36:23.510Z,100845.84
2019-02-15T13:38:49.768Z,100843.61
2019-02-15T13:41:15.931Z,100843.87
2019-02-15T13:43:42.218Z,100848.23
2019-02-15T13:46:08.489Z,100856.05
2019-02-15T13:48:34.647Z,100854.41
2019-02-15T13:51:00.853Z,100852.92
2019-02-15T13:53:27.126Z,100856.30
2019-02-15T13:55:53.401Z,100855.80
2019-02-15T13:58:19.600Z,100855.78
2019-02-15T14:00:45.754Z,100854.43
2019-02-15T14:03:12.036Z,100846.52
2019-02-15T14:05:38.326Z,100854.41
2019-02-15T14:08:04.659Z,100857.97
2019-02-15T14:10:30.963Z,100867.41
2019-02-15T14:12:57.150Z,100854.16
2019-02-15T14:15:23.427Z,100860.03
2019-02-15T14:17:49.685Z,100855.38
2019-02-15T14:20:15.983Z,100856.05
2019-02-15T14:22:42.191Z,100859.78
2019-02-15T14:25:10.516Z,100863.80
2019-02-15T14:27:36.822Z,100867.41
2019-02-15T14:30:05.891Z,100867.55
2019-02-15T14:32:32.139Z,100861.28
2019-02-15T14:34:59.265Z,100877.65
2019-02-15T14:37:25.487Z,100867.77
2019-02-15T14:39:51.659Z,100878.05
2019-02-15T14:42:17.950Z,100876.76
2019-02-15T14:44:44.229Z,100882.28
2019-02-15T14:47:10.385Z,100875.06
2019-02-15T14:49:36.581Z,100883.38
2019-02-15T14:52:02.772Z,100874.83
2019-02-15T14:54:28.932Z,100877.55
2019-02-15T14:56:55.234Z,100874.90
2019-02-15T14:59:21.521Z,100881.20
2019-02-15T15:01:47.810Z,100880.41
2019-02-15T15:04:13.991Z,100889.52
2019-02-15T15:06:40.156Z,100890.45
2019-02-15T15:09:06.330Z,100890.86
2019-02-15T15:11:32.517Z,100890.02
2019-02-15T15:13:58.690Z,100890.45
2019-02-15T15:16:24.946Z,100895.67
2019-02-15T15:18:51.135Z,100900.67
2019-02-15T15:21:17.404Z,100906.23
2019-02-15T15:23:43.660Z,100908.95
2019-02-15T15:26:12.120Z,100916.27
2019-02-15T15:28:37.916Z,100922.80
2019-02-15T15:31:04.067Z,100925.20
2019-02-15T15:33:30.353Z,100924.07
2019-02-15T15:35:56.512Z,100928.40
2019-02-15T15:38:22.687Z,100933.20
2019-02-15T15:40:48.874Z,100927.53
2019-02-15T15:43:15.028Z,100938.52
2019-02-15T15:45:41.190Z,100937.13
2019-02-15T15:48:07.388Z,100944.63
2019-02-15T15:50:33.663Z,100956.26
2019-02-15T15:52:59.821Z,100960.27
2019-02-15T15:55:26.142Z,100949.52
2019-02-15T15:57:52.386Z,100956.70
2019-02-15T16:00:18.555Z,100971.98
2019-02-15T16:02:44.755Z,100972.28
2019-02-15T16:05:11.119Z,100971.24
2019-02-15T16:07:37.285Z,100980.92
2019-02-15T16:10:07.165Z,100982.98
2019-02-15T16:12:33.355Z,100975.44
2019-02-15T16:14:59.630Z,100982.59
2019-02-15T16:17:27.733Z,100985.40
2019-02-15T16:19:54.000Z,100989.75
2019-02-15T16:22:20.265Z,100995.39
2019-02-15T16:24:46.470Z,100992.55
2019-02-15T16:27:12.620Z,100993.36
2019-02-15T16:29:38.893Z,101001.65
2019-02-15T16:32:05.290Z,101009.38
2019-02-15T16:34:31.474Z,101001.41
2019-02-15T16:36:57.615Z,101013.34
2019-02-15T16:39:23.882Z,101018.28
2019-02-15T16:41:50.084Z,101018.73
2019-02-15T16:44:16.439Z,101016.91
2019-02-15T16:46:44.370Z,101020.20
2019-02-15T16:49:10.537Z,101015.92
2019-02-15T16:51:36.800Z,101015.71
2019-02-15T16:54:03.108Z,101020.08
2019-02-15T16:56:29.381Z,101028.52
2019-02-15T16:58:55.567Z,101022.87
2019-02-15T17:01:21.748Z,101024.31
2019-02-15T17:03:48.095Z,101018.33
2019-02-15T17:06:14.405Z,101024.56
2019-02-15T17:08:40.702Z,101024.91
2019-02-15T17:11:06.866Z,101038.77
2019-02-15T17:13:34.663Z,101036.85
2019-02-15T17:16:01.242Z,101044.53
2019-02-15T17:18:27.499Z,101043.23
2019-02-15T17:20:53.788Z,101036.67
2019-02-15T17:23:19.977Z,101031.95
2019-02-15T17:25:46.151Z,101031.83
2019-02-15T17:28:12.420Z,101041.77
2019-02-15T17:30:38.624Z,101043.47
2019-02-15T17:33:04.896Z,101041.91
2019-02-15T17:35:31.166Z,101040.82
2019-02-15T17:37:57.457Z,101030.04
2019-02-15T17:40:23.736Z,101033.61
2019-02-15T17:42:49.894Z,101039.22
2019-02-15T17:45:16.079Z,101036.61
2019-02-15T17:47:42.339Z,101040.82
2019-02-15T17:50:10.104Z,101045.05
2019-02-15T17:52:36.296Z,101043.29
2019-02-15T17:55:02.847Z,101046.93
2019-02-15T17:57:29.062Z,101046.75
2019-02-15T17:59:55.357Z,101036.38
2019-02-15T18:02:24.282Z,101034.55
2019-02-15T18:04:50.561Z,101038.91
2019-02-15T18:07:17.281Z,101037.95
2019-02-15T18:09:43.557Z,101041.65
2019-02-15T18:12:09.821Z,101036.28
2019-02-15T18:14:36.120Z,101046.70
2019-02-15T18:17:02.681Z,101048.05
2019-02-15T18:19:28.838Z,101041.59
2019-02-15T18:21:55.144Z,101040.31
2019-02-15T18:24:21.303Z,101037.89
2019-02-15T18:26:47.585Z,101045.14
2019-02-15T18:29:13.791Z,101044.67
2019-02-15T18:31:43.262Z,101041.59
2019-02-15T18:34:09.571Z,101031.34
2019-02-15T18:36:35.873Z,101032.47
2019-02-15T18:39:03.369Z,101030.77
2019-02-15T18:41:29.753Z,101040.60
2019-02-15T18:43:55.950Z,101037.25
2019-02-15T18:46:22.224Z,101032.89
2019-02-15T18:48:48.479Z,101046.23
2019-02-15T18:51:14.682Z,101044.64
2019-02-15T18:53:40.960Z,101047.63
2019-02-15T18:56:07.121Z,101048.27
2019-02-15T18:58:33.415Z,101060.84
2019-02-15T19:00:59.572Z,101053.41
2019-02-15T19:03:25.738Z,101053.81
2019-02-15T19:05:51.967Z,101065.44
2019-02-15T19:08:18.104Z,101057.89
2019-02-15T19:10:44.505Z,101063.23
2019-02-15T19:13:10.706Z,101066.19
2019-02-15T19:15:36.878Z,101065.33
2019-02-15T19:18:03.053Z,101072.32
2019-02-15T19:20:29.254Z,101075.09
2019-02-15T19:22:55.505Z,101077.70
2019-02-15T19:25:21.656Z,101073.67
2019-02-15T19:27:47.852Z,101080.72
2019-02-15T19:30:17.212Z,101094.20
2019-02-15T19:32:43.917Z,101093.12
2019-02-15T19:35:10.191Z,101092.34
2019-02-15T19:37:36.368Z,101095.56
2019-02-15T19:40:05.523Z,101097.00
2019-02-15T19:42:31.784Z,101098.52
2019-02-15T19:44:57.942Z,101096.22
2019-02-15T19:47:24.106Z,101095.31
2019-02-15T19:49:50.307Z,101100.38
2019-02-15T19:52:16.578Z,101102.66
2019-02-15T19:54:42.836Z,101092.56
2019-02-15T19:57:09.132Z,101105.97
2019-02-15T19:59:35.290Z,101101.30
2019-02-15T20:02:01.455Z,101102.39
2019-02-15T20:04:27.647Z,101095.58
2019-02-15T20:06:53.802Z,101095.98
2019-02-15T20:09:19.964Z,101097.23
2019-02-15T20:11:46.162Z,101082.42
2019-02-15T20:14:12.317Z,101087.82
2019-02-15T20:16:38.487Z,101089.78
2019-02-15T20:19:04.669Z,101097.81
2019-02-15T20:21:30.839Z,101092.47
2019-02-15T20:23:57.102Z,101087.48
2019-02-15T20:26:23.389Z,101094.23
2019-02-15T20:28:49.543Z,101090.75
2019-02-15T20:31:15.721Z,101094.89
2019-02-15T20:33:41.929Z,101090.53
2019-02-15T20:36:08.184Z,101108.48
2019-02-15T20:38:34.511Z,101107.25
2019-02-15T20:41:00.840Z,101104.75
2019-02-15T20:43:28.171Z,101111.16
2019-02-15T20:45:57.036Z,101102.93
2019-02-15T20:48:23.783Z,101091.48
2019-02-15T20:50:50.266Z,101087.09
2019-02-15T20:53:16.928Z,101091.37
2019-02-15T20:55:43.116Z,101089.01
2019-02-15T20:58:09.850Z,101083.59
2019-02-15T21:00:36.445Z,101083.71
2019-02-15T21:03:02.895Z,101082.36
2019-02-15T21:05:29.272Z,101082.81
2019-02-15T21:07:55.581Z,101076.70
2019-02-15T21:10:22.055Z,101071.56
2019-02-15T21:12:48.355Z,101074.14
2019-02-15T21:15:14.503Z,101074.69
2019-02-15T21:17:43.884Z,101070.17
2019-02-15T21:20:13.745Z,101067.05
2019-02-15T21:22:39.902Z,101065.35
2019-02-15T21:25:14.128Z,101061.98
2019-02-15T21:27:40.299Z,101069.03
2019-02-15T21:30:14.272Z,101060.75
2019-02-15T21:32:40.573Z,101061.75
2019-02-15T21:35:06.742Z,101059.02
2019-02-15T21:37:33.001Z,101061.12
2019-02-15T21:39:59.312Z,101069.01
2019-02-15T21:42:25.467Z,101067.97
2019-02-15T21:44:51.789Z,101066.77
2019-02-15T21:47:17.983Z,101058.59
2019-02-15T21:49:44.169Z,101055.15
2019-02-15T21:52:10.326Z,101063.71
2019-02-15T21:54:36.531Z,101061.00
2019-02-15T21:57:02.788Z,101065.28
2019-02-15T21:59:28.947Z,101056.39
2019-02-15T22:01:55.143Z,101062.28
2019-02-15T22:04:21.708Z,101071.36
2019-02-15T22:06:48.074Z,101061.94
2019-02-15T22:09:14.266Z,101054.63
2019-02-15T22:11:40.769Z,101051.16
2019-02-15T22:14:07.029Z,101063.39
2019-02-15T22:16:33.544Z,101064.47
2019-02-15T22:18:59.701Z,101065.69
2019-02-15T22:21:25.966Z,101057.11
2019-02-15T22:23:52.265Z,101059.12
2019-02-15T22:26:18.423Z,101063.98
2019-02-15T22:28:44.603Z,101053.78
2019-02-15T22:31:11.957Z,101062.51
2019-02-15T22:33:38.356Z,101064.91
2019-02-15T22:36:04.509Z,101061.35
2019-02-15T22:38:30.716Z,101059.27
2019-02-15T22:41:00.478Z,101061.00
2019-02-15T22:43:26.639Z,101055.42
2019-02-15T22:45:53.787Z,101051.75
2019-02-15T22:48:19.945Z,101048.70
2019-02-15T22:50:46.218Z,101071.09
2019-02-15T22:53:12.505Z,101061.09
2019-02-15T22:55:38.665Z,101056.22
2019-02-15T22:58:04.969Z,101053.59
2019-02-15T23:00:48.235Z,101063.35
2019-02-15T23:03:16.080Z,101066.22
2019-02-15T23:05:42.331Z,101054.00
2019-02-15T23:08:08.532Z,101052.75
2019-02-15T23:10:34.698Z,101052.21
2019-02-15T23:13:00.859Z,101054.27
2019-02-15T23:15:27.055Z,101052.44
2019-02-15T23:17:53.206Z,101050.77
2019-02-15T23:20:19.355Z,101044.35
2019-02-15T23:22:45.659Z,101047.34
2019-02-15T23:25:11.924Z,101042.81
2019-02-15T23:27:38.075Z,101044.47
2019-02-15T23:30:06.381Z,101039.06
2019-02-15T23:32:32.633Z,101034.72
2019-02-15T23:34:58.787Z,101032.33
2019-02-15T23:37:24.967Z,101035.89
2019-02-15T23:39:51.226Z,101035.81
2019-02-15T23:42:17.486Z,101033.36
2019-02-15T23:44:43.683Z,101037.41
2019-02-15T23:47:09.849Z,101035.35
2019-02-15T23:49:36.113Z,101041.63
2019-02-15T23:52:02.302Z,101036.50
2019-02-15T23:54:28.460Z,101039.12
2019-02-15T23:56:54.622Z,101032.09
2019-02-15T23:59:20.808Z,101028.12
